createdAt,value
2023-02-04T00:01:00.882Z,3.00
2023-02-04T00:03:27.329Z,3.00
2023-02-04T00:05:53.859Z,3.00
2023-02-04T00:08:20.364Z,4.00
2023-02-04T00:10:47.565Z,2.00
2023-02-04T00:13:14.078Z,3.00
2023-02-04T00:15:40.547Z,3.60
2023-02-04T00:18:07.307Z,3.00
2023-02-04T00:20:33.927Z,3.50
2023-02-04T00:23:00.395Z,2.40
2023-02-04T00:25:26.910Z,3.00
2023-02-04T00:27:53.562Z,3.00
2023-02-04T00:30:20.078Z,3.00
2023-02-04T00:32:46.581Z,2.00
2023-02-04T00:35:13.390Z,2.50
2023-02-04T00:37:39.846Z,3.00
2023-02-04T00:40:06.554Z,3.00
2023-02-04T00:42:33.046Z,3.00
2023-02-04T00:44:59.550Z,2.00
2023-02-04T00:47:26.066Z,2.20
2023-02-04T00:49:52.658Z,2.20
2023-02-04T00:52:19.206Z,3.40
2023-02-04T00:54:45.655Z,2.00
2023-02-04T00:57:12.167Z,2.40
2023-02-04T00:59:38.663Z,2.00
2023-02-04T01:02:05.125Z,3.00
2023-02-04T01:04:31.686Z,3.00
2023-02-04T01:06:58.517Z,2.00
2023-02-04T01:09:25.054Z,2.00
2023-02-04T01:11:51.605Z,2.00
2023-02-04T01:14:18.071Z,3.00
2023-02-04T01:16:45.387Z,2.75
2023-02-04T01:19:12.643Z,2.60
2023-02-04T01:21:40.956Z,2.00
2023-02-04T01:24:07.572Z,2.00
2023-02-04T01:26:34.052Z,2.00
2023-02-04T01:29:00.549Z,2.00
2023-02-04T01:31:27.158Z,2.00
2023-02-04T01:33:53.638Z,2.00
2023-02-04T01:36:21.877Z,3.00
2023-02-04T01:38:48.995Z,3.00
2023-02-04T01:41:16.153Z,2.00
2023-02-04T01:43:42.679Z,3.00
2023-02-04T01:46:09.317Z,2.00
2023-02-04T01:48:35.838Z,2.00
2023-02-04T01:51:05.004Z,2.40
2023-02-04T01:53:31.779Z,2.00
2023-02-04T01:55:58.353Z,3.00
2023-02-04T01:58:25.339Z,3.00
2023-02-04T02:00:51.863Z,2.00
2023-02-04T02:03:19.104Z,2.00
2023-02-04T02:05:48.111Z,2.00
2023-02-04T02:08:15.981Z,2.20
2023-02-04T02:10:43.989Z,1.00
2023-02-04T02:13:11.781Z,1.00
2023-02-04T02:15:39.220Z,2.00
2023-02-04T02:18:06.037Z,2.00
2023-02-04T02:20:33.009Z,3.00
2023-02-04T02:23:05.596Z,1.00
2023-02-04T02:25:32.475Z,2.00
2023-02-04T02:27:59.804Z,2.00
2023-02-04T02:30:28.253Z,2.00
2023-02-04T02:32:55.435Z,1.00
2023-02-04T02:35:22.324Z,2.00
2023-02-04T02:37:48.856Z,1.00
2023-02-04T02:40:15.607Z,1.00
2023-02-04T02:42:43.425Z,2.00
2023-02-04T02:45:36.229Z,2.00
2023-02-04T02:48:05.621Z,1.00
2023-02-04T02:50:33.407Z,2.00
2023-02-04T02:53:00.368Z,2.00
2023-02-04T02:55:28.024Z,3.00
2023-02-04T02:57:55.083Z,1.00
2023-02-04T03:00:25.898Z,2.00
2023-02-04T03:03:18.784Z,1.75
2023-02-04T03:05:46.876Z,3.20
2023-02-04T03:08:14.453Z,2.00
2023-02-04T03:10:41.735Z,2.00
2023-02-04T03:13:08.530Z,1.00
2023-02-04T03:15:35.203Z,1.50
2023-02-04T03:18:01.970Z,2.00
2023-02-04T03:20:30.136Z,2.00
2023-02-04T03:22:57.188Z,2.00
2023-02-04T03:25:28.278Z,2.00
2023-02-04T03:27:58.575Z,2.00
2023-02-04T03:30:25.778Z,2.00
2023-02-04T03:32:52.525Z,2.00
2023-02-04T03:35:19.544Z,1.00
2023-02-04T03:37:46.273Z,2.00
2023-02-04T03:40:13.093Z,2.00
2023-02-04T03:42:39.578Z,2.00
2023-02-04T03:45:06.186Z,1.00
2023-02-04T03:47:32.818Z,1.00
2023-02-04T03:49:59.264Z,2.00
2023-02-04T03:52:25.797Z,1.33
2023-02-04T03:54:52.254Z,1.60
2023-02-04T03:57:18.739Z,2.40
2023-02-04T03:59:45.260Z,3.00
2023-02-04T04:02:11.705Z,3.75
2023-02-04T04:04:38.176Z,2.00
2023-02-04T04:07:07.836Z,2.00
2023-02-04T04:09:34.317Z,2.00
2023-02-04T04:12:01.068Z,2.00
2023-02-04T04:14:27.675Z,2.50
2023-02-04T04:16:54.148Z,2.00
2023-02-04T04:19:20.617Z,2.00
2023-02-04T04:21:47.064Z,2.00
2023-02-04T04:24:13.556Z,2.00
2023-02-04T04:26:40.019Z,2.00
2023-02-04T04:29:06.478Z,2.00
2023-02-04T04:31:33.058Z,1.00
2023-02-04T04:33:59.711Z,2.20
2023-02-04T04:36:26.199Z,2.00
2023-02-04T04:38:52.677Z,2.00
2023-02-04T04:41:19.143Z,3.00
2023-02-04T04:43:45.641Z,2.00
2023-02-04T04:46:12.122Z,2.00
2023-02-04T04:48:38.762Z,2.00
2023-02-04T04:51:05.306Z,3.60
2023-02-04T04:53:31.748Z,2.00
2023-02-04T04:55:58.305Z,2.00
2023-02-04T04:58:24.770Z,2.75
2023-02-04T05:00:51.303Z,3.00
2023-02-04T05:03:17.835Z,3.00
2023-02-04T05:05:44.460Z,3.00
2023-02-04T05:08:13.347Z,3.00
2023-02-04T05:10:40.608Z,3.00
2023-02-04T05:13:07.154Z,1.00
2023-02-04T05:15:33.784Z,2.00
2023-02-04T05:18:00.275Z,2.40
2023-02-04T05:20:26.779Z,1.60
2023-02-04T05:22:53.439Z,3.00
2023-02-04T05:25:19.946Z,2.00
2023-02-04T05:27:46.444Z,2.00
2023-02-04T05:30:13.488Z,2.00
2023-02-04T05:32:39.963Z,2.00
2023-02-04T05:35:06.701Z,3.00
2023-02-04T05:37:33.176Z,3.00
2023-02-04T05:39:59.702Z,5.50
2023-02-04T05:42:26.254Z,6.00
2023-02-04T05:44:52.723Z,6.40
2023-02-04T05:47:20.584Z,9.00
2023-02-04T05:49:47.290Z,23.00
2023-02-04T05:52:13.749Z,30.33
2023-02-04T05:54:40.231Z,34.25
2023-02-04T05:57:07.075Z,52.00
2023-02-04T05:59:33.541Z,89.00
2023-02-04T06:01:59.974Z,76.00
2023-02-04T06:04:26.527Z,62.20
2023-02-04T06:06:53.002Z,82.00
2023-02-04T06:09:19.470Z,73.75
2023-02-04T06:11:45.963Z,66.40
2023-02-04T06:14:12.416Z,60.00
2023-02-04T06:16:38.918Z,35.00
2023-02-04T06:19:05.443Z,31.75
2023-02-04T06:21:31.911Z,32.00
2023-02-04T06:23:58.380Z,33.00
2023-02-04T06:26:24.876Z,33.00
2023-02-04T06:28:51.338Z,33.00
2023-02-04T06:31:17.948Z,33.00
2023-02-04T06:33:44.480Z,28.40
2023-02-04T06:36:10.931Z,32.00
2023-02-04T06:38:37.408Z,33.00
2023-02-04T06:41:03.898Z,31.00
2023-02-04T06:43:30.446Z,32.25
2023-02-04T06:45:57.011Z,31.00
2023-02-04T06:48:23.477Z,28.00
2023-02-04T06:50:49.965Z,31.00
2023-02-04T06:53:16.504Z,28.00
2023-02-04T06:55:43.034Z,29.00
2023-02-04T06:58:09.825Z,31.00
2023-02-04T07:00:36.335Z,31.00
2023-02-04T07:03:02.842Z,35.00
2023-02-04T07:05:29.423Z,39.25
2023-02-04T07:07:56.411Z,41.75
2023-02-04T07:10:22.990Z,41.00
2023-02-04T07:12:49.486Z,43.25
2023-02-04T07:15:16.177Z,35.75
2023-02-04T07:17:42.670Z,55.75
2023-02-04T07:20:10.093Z,61.00
2023-02-04T07:22:37.059Z,49.67
2023-02-04T07:25:03.820Z,49.00
2023-02-04T07:27:30.346Z,38.00
2023-02-04T07:29:56.865Z,59.00
2023-02-04T07:32:23.353Z,62.00
2023-02-04T07:34:49.825Z,50.80
2023-02-04T07:37:16.364Z,51.75
2023-02-04T07:39:42.854Z,38.00
2023-02-04T07:42:09.449Z,48.40
2023-02-04T07:44:37.698Z,57.75
2023-02-04T07:47:04.166Z,63.60
2023-02-04T07:49:30.707Z,64.25
2023-02-04T07:51:58.169Z,58.40
2023-02-04T07:54:24.623Z,68.80
2023-02-04T07:56:51.080Z,72.75
2023-02-04T07:59:17.552Z,96.75
2023-02-04T08:01:44.060Z,112.25
2023-02-04T08:04:10.565Z,67.50
2023-02-04T08:06:37.047Z,48.60
2023-02-04T08:09:03.545Z,53.00
2023-02-04T08:11:30.048Z,67.60
2023-02-04T08:13:56.527Z,37.50
2023-02-04T08:16:23.322Z,27.75
2023-02-04T08:18:49.770Z,23.50
2023-02-04T08:21:17.141Z,20.00
2023-02-04T08:23:44.751Z,14.50
2023-02-04T08:26:11.753Z,17.75
2023-02-04T08:28:38.700Z,18.60
2023-02-04T08:31:05.987Z,22.00
2023-02-04T08:33:32.678Z,22.00
2023-02-04T08:35:59.198Z,23.00
2023-02-04T08:38:25.650Z,28.00
2023-02-04T08:40:52.286Z,22.00
2023-02-04T08:43:18.782Z,26.00
2023-02-04T08:45:45.456Z,23.20
2023-02-04T08:48:11.918Z,16.60
2023-02-04T08:50:39.125Z,12.40
2023-02-04T08:53:05.757Z,12.20
2023-02-04T08:55:32.317Z,11.60
2023-02-04T08:57:59.336Z,20.00
2023-02-04T09:00:25.813Z,18.00
2023-02-04T09:02:52.325Z,10.60
2023-02-04T09:05:18.819Z,9.80
2023-02-04T09:07:45.294Z,18.50
2023-02-04T09:10:11.847Z,21.75
2023-02-04T09:12:39.898Z,27.00
2023-02-04T09:15:06.523Z,28.20
2023-02-04T09:17:33.933Z,27.25
2023-02-04T09:20:00.430Z,33.75
2023-02-04T09:22:26.913Z,40.80
2023-02-04T09:24:53.358Z,46.75
2023-02-04T09:27:20.050Z,40.00
2023-02-04T09:29:46.540Z,22.75
2023-02-04T09:32:13.145Z,15.75
2023-02-04T09:34:39.649Z,20.50
2023-02-04T09:37:06.101Z,13.00
2023-02-04T09:39:32.551Z,19.40
2023-02-04T09:41:59.257Z,20.00
2023-02-04T09:44:26.820Z,29.20
2023-02-04T09:46:55.144Z,32.00
2023-02-04T09:49:21.864Z,26.50
2023-02-04T09:51:49.257Z,21.00
2023-02-04T09:54:17.468Z,16.80
2023-02-04T09:56:43.996Z,19.00
2023-02-04T09:59:16.180Z,19.80
2023-02-04T10:01:42.679Z,33.40
2023-02-04T10:04:11.988Z,39.00
2023-02-04T10:06:39.305Z,32.50
2023-02-04T10:09:05.799Z,32.00
2023-02-04T10:11:36.114Z,31.50
2023-02-04T10:14:02.602Z,29.80
2023-02-04T10:16:31.073Z,29.00
2023-02-04T10:18:58.719Z,20.00
2023-02-04T10:21:28.712Z,25.00
2023-02-04T10:23:56.857Z,26.80
2023-02-04T10:26:25.347Z,21.25
2023-02-04T10:28:58.272Z,21.00
2023-02-04T10:31:33.295Z,18.75
2023-02-04T10:34:06.031Z,24.00
2023-02-04T10:36:32.523Z,15.80
2023-02-04T10:38:59.614Z,17.00
2023-02-04T10:41:26.148Z,20.00
2023-02-04T10:44:03.069Z,19.00
2023-02-04T10:46:31.131Z,15.75
2023-02-04T10:48:57.719Z,22.00
2023-02-04T10:51:24.322Z,22.00
2023-02-04T10:54:09.698Z,23.00
2023-02-04T10:56:36.173Z,29.00
2023-02-04T10:59:02.662Z,25.60
2023-02-04T11:01:29.788Z,22.00
2023-02-04T11:03:56.302Z,20.67
2023-02-04T11:06:24.511Z,19.00
2023-02-04T11:08:53.651Z,12.75
2023-02-04T11:11:24.561Z,10.00
2023-02-04T11:13:51.016Z,11.40
2023-02-04T11:16:17.757Z,9.00
2023-02-04T11:18:51.774Z,10.00
2023-02-04T11:21:26.246Z,7.00
2023-02-04T11:24:11.180Z,7.00
2023-02-04T11:26:38.780Z,5.80
2023-02-04T11:29:05.256Z,6.00
2023-02-04T11:31:34.979Z,6.00
2023-02-04T11:34:18.488Z,6.00
2023-02-04T11:37:04.948Z,6.00
2023-02-04T11:39:37.177Z,5.00
2023-02-04T11:42:04.518Z,4.00
2023-02-04T11:44:32.213Z,4.00
2023-02-04T11:47:00.599Z,5.00
2023-02-04T11:49:27.536Z,4.00
2023-02-04T11:52:08.962Z,4.75
2023-02-04T11:54:36.252Z,5.00
2023-02-04T11:57:02.777Z,4.00
2023-02-04T11:59:29.290Z,4.60
2023-02-04T12:02:06.226Z,3.00
2023-02-04T12:04:33.117Z,4.00
2023-02-04T12:07:01.285Z,4.00
2023-02-04T12:09:30.010Z,4.20
2023-02-04T12:12:00.969Z,3.20
2023-02-04T12:14:35.031Z,2.00
2023-02-04T12:17:01.604Z,3.00
2023-02-04T12:19:28.168Z,3.40
2023-02-04T12:21:55.879Z,3.00
2023-02-04T12:24:22.404Z,3.00
2023-02-04T12:26:48.917Z,2.75
2023-02-04T12:29:15.387Z,3.00
2023-02-04T12:31:42.157Z,2.00
2023-02-04T12:34:08.775Z,3.20
2023-02-04T12:36:35.251Z,2.40
2023-02-04T12:39:03.476Z,1.75
2023-02-04T12:41:30.036Z,3.00
2023-02-04T12:43:56.548Z,3.00
2023-02-04T12:46:23.726Z,2.50
2023-02-04T12:48:50.288Z,2.25
2023-02-04T12:51:16.776Z,3.00
2023-02-04T12:53:43.289Z,1.80
2023-02-04T12:56:09.784Z,0.75
2023-02-04T12:58:36.269Z,0.60
2023-02-04T13:01:04.442Z,0.00
2023-02-04T13:03:31.351Z,1.00
2023-02-04T13:05:57.844Z,2.00
2023-02-04T13:08:24.466Z,1.40
2023-02-04T13:10:52.358Z,1.00
2023-02-04T13:13:19.698Z,1.00
2023-02-04T13:15:46.303Z,2.00
2023-02-04T13:18:12.825Z,2.00
2023-02-04T13:20:39.315Z,2.00
2023-02-04T13:23:05.852Z,2.00
2023-02-04T13:25:32.935Z,2.00
2023-02-04T13:27:59.618Z,2.00
2023-02-04T13:30:26.120Z,1.00
2023-02-04T13:32:52.712Z,2.00
2023-02-04T13:35:19.613Z,1.00
2023-02-04T13:37:46.166Z,1.00
2023-02-04T13:40:12.808Z,1.00
2023-02-04T13:42:39.273Z,1.60
2023-02-04T13:45:07.728Z,1.00
2023-02-04T13:47:34.259Z,1.50
2023-02-04T13:50:00.744Z,1.00
2023-02-04T13:52:27.211Z,2.00
2023-02-04T13:54:55.177Z,2.00
2023-02-04T13:57:21.847Z,2.00
2023-02-04T13:59:48.335Z,2.00
2023-02-04T14:02:14.927Z,2.00
2023-02-04T14:04:43.966Z,1.00
2023-02-04T14:07:10.553Z,1.00
2023-02-04T14:09:37.010Z,2.00
2023-02-04T14:12:03.693Z,1.00
2023-02-04T14:14:30.239Z,2.00
2023-02-04T14:16:56.730Z,2.00
2023-02-04T14:19:27.631Z,1.00
2023-02-04T14:21:54.257Z,2.00
2023-02-04T14:24:20.904Z,2.00
2023-02-04T14:26:48.017Z,1.40
2023-02-04T14:29:14.732Z,1.00
2023-02-04T14:31:41.346Z,1.00
2023-02-04T14:34:07.851Z,1.00
2023-02-04T14:36:34.317Z,1.00
2023-02-04T14:39:00.785Z,1.00
2023-02-04T14:41:30.122Z,1.00
2023-02-04T14:43:56.836Z,0.75
2023-02-04T14:46:24.058Z,1.00
2023-02-04T14:48:52.182Z,1.20
2023-02-04T14:51:19.706Z,1.40
2023-02-04T14:53:48.603Z,1.20
2023-02-04T14:56:15.598Z,1.00
2023-02-04T14:58:42.160Z,2.00
2023-02-04T15:01:08.748Z,2.00
2023-02-04T15:03:35.294Z,2.00
2023-02-04T15:06:01.881Z,1.00
2023-02-04T15:08:28.387Z,1.50
2023-02-04T15:10:54.873Z,2.00
2023-02-04T15:13:21.603Z,0.80
2023-02-04T15:15:48.081Z,1.60
2023-02-04T15:18:14.837Z,2.00
2023-02-04T15:20:41.290Z,1.00
2023-02-04T15:23:07.872Z,0.40
2023-02-04T15:25:34.343Z,3.00
2023-02-04T15:28:00.873Z,2.50
2023-02-04T15:30:27.463Z,2.00
2023-02-04T15:32:53.968Z,1.50
2023-02-04T15:35:21.975Z,1.80
2023-02-04T15:37:48.561Z,1.40
2023-02-04T15:40:15.206Z,2.00
2023-02-04T15:42:41.735Z,1.00
2023-02-04T15:45:08.399Z,1.00
2023-02-04T15:47:34.894Z,1.00
2023-02-04T15:50:01.472Z,2.25
2023-02-04T15:52:29.358Z,2.00
2023-02-04T15:54:55.980Z,1.60
2023-02-04T15:57:22.520Z,2.40
2023-02-04T15:59:49.061Z,2.75
2023-02-04T16:02:15.599Z,1.80
2023-02-04T16:04:45.260Z,1.60
2023-02-04T16:07:12.204Z,1.80
2023-02-04T16:09:38.950Z,1.25
2023-02-04T16:12:05.661Z,2.00
2023-02-04T16:14:32.206Z,1.40
2023-02-04T16:16:58.748Z,2.00
2023-02-04T16:19:25.224Z,2.20
2023-02-04T16:21:51.885Z,2.60
2023-02-04T16:24:18.634Z,2.00
2023-02-04T16:26:45.527Z,2.00
2023-02-04T16:29:12.132Z,2.00
2023-02-04T16:31:38.709Z,2.00
2023-02-04T16:34:05.254Z,2.00
2023-02-04T16:36:31.756Z,2.00
2023-02-04T16:38:59.661Z,2.00
2023-02-04T16:41:26.134Z,2.80
2023-02-04T16:43:52.653Z,3.00
2023-02-04T16:46:19.343Z,3.00
2023-02-04T16:48:45.912Z,2.80
2023-02-04T16:51:12.421Z,3.00
2023-02-04T16:53:39.177Z,3.40
2023-02-04T16:56:05.945Z,3.00
2023-02-04T16:58:32.459Z,2.00
2023-02-04T17:00:59.920Z,2.40
2023-02-04T17:03:27.297Z,3.00
2023-02-04T17:05:53.798Z,1.00
2023-02-04T17:08:20.265Z,3.00
2023-02-04T17:11:05.318Z,2.80
2023-02-04T17:13:31.797Z,3.00
2023-02-04T17:16:01.255Z,3.80
2023-02-04T17:18:31.874Z,3.25
2023-02-04T17:20:58.723Z,3.00
2023-02-04T17:23:25.675Z,2.60
2023-02-04T17:25:52.635Z,4.00
2023-02-04T17:28:19.154Z,4.00
2023-02-04T17:30:46.387Z,2.00
2023-02-04T17:33:12.891Z,3.80
2023-02-04T17:35:39.361Z,3.60
2023-02-04T17:38:06.023Z,5.60
2023-02-04T17:40:32.564Z,5.00
2023-02-04T17:42:59.118Z,4.00
2023-02-04T17:45:25.719Z,4.60
2023-02-04T17:47:52.373Z,2.40
2023-02-04T17:50:19.427Z,5.00
2023-02-04T17:52:45.880Z,4.00
2023-02-04T17:55:27.836Z,5.00
2023-02-04T17:57:55.005Z,3.40
2023-02-04T18:00:23.058Z,2.40
2023-02-04T18:02:50.515Z,4.33
2023-02-04T18:05:18.940Z,3.20
2023-02-04T18:07:54.019Z,3.00
2023-02-04T18:10:29.509Z,6.00
2023-02-04T18:12:57.131Z,4.00
2023-02-04T18:15:26.026Z,4.80
2023-02-04T18:17:53.267Z,4.00
2023-02-04T18:20:19.997Z,6.00
2023-02-04T18:22:49.159Z,5.00
2023-02-04T18:25:19.701Z,6.00
2023-02-04T18:27:46.261Z,5.00
2023-02-04T18:30:22.240Z,3.60
2023-02-04T18:32:50.144Z,6.00
2023-02-04T18:35:22.790Z,6.00
2023-02-04T18:37:50.774Z,4.20
2023-02-04T18:40:24.953Z,5.60
2023-02-04T18:42:55.465Z,5.75
2023-02-04T18:45:29.592Z,5.50
2023-02-04T18:47:57.373Z,4.75
2023-02-04T18:50:28.254Z,4.50
2023-02-04T18:52:54.990Z,5.40
2023-02-04T18:55:29.682Z,6.40
2023-02-04T18:57:56.258Z,5.75
2023-02-04T19:00:32.531Z,6.00
2023-02-04T19:03:02.072Z,8.00
2023-02-04T19:05:33.776Z,5.00
2023-02-04T19:08:20.481Z,6.00
2023-02-04T19:10:47.747Z,5.20
2023-02-04T19:13:17.352Z,6.00
2023-02-04T19:15:44.107Z,5.20
2023-02-04T19:18:24.760Z,7.00
2023-02-04T19:20:51.697Z,5.40
2023-02-04T19:23:19.423Z,5.60
2023-02-04T19:25:47.297Z,8.00
2023-02-04T19:28:14.190Z,7.50
2023-02-04T19:30:44.304Z,6.00
2023-02-04T19:33:18.132Z,6.00
2023-02-04T19:35:46.295Z,7.00
2023-02-04T19:38:33.013Z,5.00
2023-02-04T19:41:00.364Z,6.00
2023-02-04T19:43:37.088Z,6.67
2023-02-04T19:46:33.070Z,8.00
2023-02-04T19:48:59.538Z,6.00
2023-02-04T19:51:28.306Z,6.00
2023-02-04T19:53:59.209Z,5.40
2023-02-04T19:56:33.556Z,5.00
2023-02-04T19:59:12.804Z,8.00
2023-02-04T20:01:39.298Z,7.00
2023-02-04T20:04:12.448Z,8.00
2023-02-04T20:06:43.081Z,5.50
2023-02-04T20:09:20.387Z,7.80
2023-02-04T20:11:55.100Z,6.20
2023-02-04T20:14:26.632Z,5.75
2023-02-04T20:16:54.666Z,5.50
2023-02-04T20:19:21.149Z,6.50
2023-02-04T20:22:14.100Z,6.00
2023-02-04T20:24:41.910Z,5.75
2023-02-04T20:27:20.668Z,7.00
2023-02-04T20:29:47.854Z,6.00
2023-02-04T20:32:26.277Z,7.00
2023-02-04T20:34:55.438Z,6.00
2023-02-04T20:37:28.394Z,6.40
2023-02-04T20:39:54.896Z,8.00
2023-02-04T20:42:26.436Z,6.60
2023-02-04T20:44:53.512Z,6.50
2023-02-04T20:47:21.152Z,6.00
2023-02-04T20:49:57.889Z,7.00
2023-02-04T20:52:39.713Z,7.00
2023-02-04T20:55:24.134Z,6.00
2023-02-04T20:57:52.249Z,6.00
2023-02-04T21:00:34.397Z,8.00
2023-02-04T21:03:13.216Z,6.80
2023-02-04T21:05:40.566Z,6.40
2023-02-04T21:08:27.773Z,6.00
2023-02-04T21:10:54.301Z,7.00
2023-02-04T21:13:20.802Z,6.00
2023-02-04T21:15:47.588Z,7.00
2023-02-04T21:18:14.100Z,6.50
2023-02-04T21:20:40.590Z,5.00
2023-02-04T21:23:07.189Z,4.00
2023-02-04T21:25:33.946Z,6.00
2023-02-04T21:28:00.729Z,7.00
2023-02-04T21:30:30.323Z,5.75
2023-02-04T21:32:57.509Z,6.80
2023-02-04T21:35:26.993Z,6.00
2023-02-04T21:37:54.000Z,4.40
2023-02-04T21:40:24.396Z,7.00
2023-02-04T21:42:51.658Z,6.75
2023-02-04T21:45:19.138Z,6.75
2023-02-04T21:47:46.089Z,6.00
2023-02-04T21:50:14.515Z,5.00
2023-02-04T21:52:41.363Z,5.50
2023-02-04T21:55:08.581Z,6.00
2023-02-04T21:57:35.121Z,6.00
2023-02-04T22:00:01.780Z,5.00
2023-02-04T22:02:28.288Z,5.00
2023-02-04T22:04:54.759Z,4.00
2023-02-04T22:07:21.589Z,5.00
2023-02-04T22:09:50.086Z,5.75
2023-02-04T22:12:17.525Z,5.00
2023-02-04T22:15:04.271Z,5.00
2023-02-04T22:17:31.178Z,5.00
2023-02-04T22:19:57.653Z,4.00
2023-02-04T22:22:24.190Z,5.00
2023-02-04T22:24:50.722Z,4.00
2023-02-04T22:27:17.347Z,5.50
2023-02-04T22:29:43.908Z,4.50
2023-02-04T22:32:10.387Z,5.00
2023-02-04T22:34:36.955Z,7.00
2023-02-04T22:37:03.685Z,4.00
2023-02-04T22:39:30.135Z,6.00
2023-02-04T22:41:56.809Z,6.00
2023-02-04T22:44:23.379Z,4.50
2023-02-04T22:46:49.849Z,4.00
2023-02-04T22:49:16.376Z,5.40
2023-02-04T22:51:42.999Z,5.75
2023-02-04T22:54:09.456Z,6.00
2023-02-04T22:56:36.004Z,4.20
2023-02-04T22:59:02.634Z,6.00
2023-02-04T23:01:29.308Z,5.20
2023-02-04T23:03:55.796Z,6.00
2023-02-04T23:06:22.762Z,6.00
2023-02-04T23:08:49.705Z,3.80
2023-02-04T23:11:18.521Z,6.00
2023-02-04T23:13:45.794Z,5.00
2023-02-04T23:16:12.297Z,4.00
2023-02-04T23:18:38.793Z,4.00
2023-02-04T23:21:05.530Z,4.25
2023-02-04T23:23:32.246Z,5.00
2023-02-04T23:26:03.378Z,5.00
2023-02-04T23:28:30.249Z,5.40
2023-02-04T23:30:57.005Z,6.00
2023-02-04T23:33:23.729Z,5.25
2023-02-04T23:35:50.225Z,5.00
2023-02-04T23:38:16.693Z,5.80
2023-02-04T23:40:43.152Z,4.75
2023-02-04T23:43:10.923Z,5.60
2023-02-04T23:45:37.679Z,7.00
2023-02-04T23:48:04.339Z,5.00
2023-02-04T23:50:30.785Z,6.00
2023-02-04T23:52:57.444Z,5.80
2023-02-04T23:55:24.234Z,6.25
2023-02-04T23:57:50.779Z,6.00
